Time;durP1;ratioP1;P1;durP2;ratioP2;P2;SDS_P1;SDS_P2;PMS_P1;PMS_P2;Temp;Humidity;BMP_temperature;BMP_pressure;BME280_temperature;BME280_humidity;BME280_pressure;Samples;Min_cycle;Max_cycle;Signal;HPM_P1;HPM_P2
2022/01/18 00:00:45;;;;;;;;;;;;;;;3.89;nan;102459.13;5039983;28;19925;-85
2022/01/18 00:03:11;;;;;;;;;;;;;;;3.91;nan;102455.53;5038996;28;20122;-85
2022/01/18 00:05:37;;;;;;;;;;;;;;;3.92;nan;102456.38;5026108;28;19921;-85
2022/01/18 00:08:03;;;;;;;;;;;;;;;3.90;nan;102473.91;5037187;28;19982;-85
2022/01/18 00:10:31;;;;;;;;;;;;;;;3.80;nan;102469.03;5041851;28;19917;-84
2022/01/18 00:18:09;;;;;;;;;;;;;;;3.83;nan;102482.00;5040806;28;20371;-85
2022/01/18 00:23:02;;;;;;;;;;;;;;;3.88;nan;102473.13;5035731;28;19921;-83
2022/01/18 00:25:28;;;;;;;;;;;;;;;3.84;nan;102482.88;5039894;28;19984;-84
2022/01/18 00:27:53;;;;;;;;;;;;;;;3.85;nan;102486.34;5043051;28;19921;-83
2022/01/18 00:30:52;;;;;;;;;;;;;;;3.82;nan;102482.91;5039191;28;19925;-84
2022/01/18 00:35:43;;;;;;;;;;;;;;;3.73;nan;102483.28;5037249;28;19932;-84
2022/01/18 00:38:17;;;;;;;;;;;;;;;3.78;nan;102491.78;5032669;28;19976;-84
2022/01/18 00:40:42;;;;;;;;;;;;;;;3.75;nan;102501.53;5038740;28;19971;-84
2022/01/18 00:43:07;;;;;;;;;;;;;;;3.81;nan;102506.50;5037651;28;20337;-86
2022/01/18 00:45:32;;;;;;;;;;;;;;;3.75;nan;102510.22;5035189;28;19943;-87
2022/01/18 00:47:58;;;;;;;;;;;;;;;3.78;nan;102512.72;5019322;28;20007;-85
2022/01/18 00:50:26;;;;;;;;;;;;;;;3.80;nan;102521.38;5031443;28;19948;-86
2022/01/18 00:52:53;;;;;;;;;;;;;;;3.81;nan;102524.84;5037412;28;19921;-85
2022/01/18 00:55:18;;;;;;;;;;;;;;;3.78;nan;102512.72;5033218;28;19932;-85
2022/01/18 00:57:43;;;;;;;;;;;;;;;3.65;nan;102503.66;5037565;28;19921;-86
2022/01/18 01:00:10;;;;;;;;;;;;;;;3.83;nan;102509.94;5029858;28;20402;-85
2022/01/18 01:02:35;;;;;;;;;;;;;;;3.82;nan;102522.16;5034640;28;19921;-84
2022/01/18 01:05:01;;;;;;;;;;;;;;;3.91;nan;102520.97;5045587;28;19921;-86
2022/01/18 01:07:26;;;;;;;;;;;;;;;3.94;nan;102522.63;5043225;28;20003;-85
2022/01/18 01:09:52;;;;;;;;;;;;;;;3.95;nan;102519.91;5042602;28;19949;-85
2022/01/18 01:12:19;;;;;;;;;;;;;;;3.98;nan;102527.66;5038966;28;19983;-83
2022/01/18 01:14:45;;;;;;;;;;;;;;;4.01;nan;102530.16;5036202;28;19928;-84
2022/01/18 01:17:30;;;;;;;;;;;;;;;4.00;nan;102524.97;5034142;28;20007;-83
2022/01/18 01:44:03;;;;;;;;;;;;;;;3.87;nan;102539.47;5014744;28;19928;-84
2022/01/18 01:46:29;;;;;;;;;;;;;;;3.80;nan;102534.44;5021849;28;19928;-84
2022/01/18 01:48:57;;;;;;;;;;;;;;;3.86;nan;102541.22;5027680;28;20390;-84
2022/01/18 01:51:29;;;;;;;;;;;;;;;3.83;nan;102541.34;5029834;28;19967;-84
2022/01/18 01:53:55;;;;;;;;;;;;;;;3.83;nan;102543.94;5022585;28;19921;-85
2022/01/18 01:56:20;;;;;;;;;;;;;;;3.79;nan;102535.38;5022689;28;20314;-85
2022/01/18 01:58:46;;;;;;;;;;;;;;;3.81;nan;102533.56;5035524;28;19917;-83
2022/01/18 02:01:11;;;;;;;;;;;;;;;3.82;nan;102529.16;5036068;28;19992;-85
2022/01/18 02:03:36;;;;;;;;;;;;;;;3.86;nan;102525.50;5034203;28;19943;-84
2022/01/18 02:06:02;;;;;;;;;;;;;;;3.85;nan;102517.72;5032771;28;19921;-84
2022/01/18 02:08:28;;;;;;;;;;;;;;;3.80;nan;102525.75;5033166;28;19921;-85
2022/01/18 02:10:53;;;;;;;;;;;;;;;3.76;nan;102529.41;5023423;28;19921;-85
2022/01/18 02:13:18;;;;;;;;;;;;;;;3.73;nan;102527.75;5033605;28;19958;-84
2022/01/18 02:23:55;;;;;;;;;;;;;;;3.83;nan;102528.25;5037026;28;19936;-84
2022/01/18 02:26:20;;;;;;;;;;;;;;;3.74;nan;102521.63;5040166;28;20358;-84
2022/01/18 02:28:46;;;;;;;;;;;;;;;3.77;nan;102515.41;5039774;28;19921;-84
2022/01/18 02:31:11;;;;;;;;;;;;;;;3.80;nan;102512.69;5036923;28;19935;-85
2022/01/18 02:33:36;;;;;;;;;;;;;;;3.84;nan;102516.88;5034027;28;19928;-85
2022/01/18 02:36:05;;;;;;;;;;;;;;;3.85;nan;102520.34;5029916;28;20160;-84
2022/01/18 02:38:31;;;;;;;;;;;;;;;3.81;nan;102506.50;5045754;28;19921;-84
2022/01/18 02:40:57;;;;;;;;;;;;;;;3.82;nan;102513.47;5026638;28;19921;-85
2022/01/18 02:46:07;;;;;;;;;;;;;;;3.90;nan;102516.63;5031490;28;19928;-84
2022/01/18 02:48:32;;;;;;;;;;;;;;;3.90;nan;102513.16;5030079;28;19925;-84
2022/01/18 02:50:57;;;;;;;;;;;;;;;3.92;nan;102506.13;5037297;28;19921;-84
2022/01/18 02:53:22;;;;;;;;;;;;;;;3.93;nan;102515.66;5038750;28;19921;-84
2022/01/18 02:55:55;;;;;;;;;;;;;;;3.96;nan;102511.16;5039575;28;19925;-84
2022/01/18 02:58:26;;;;;;;;;;;;;;;3.96;nan;102503.31;5045399;28;19935;-84
2022/01/18 03:03:30;;;;;;;;;;;;;;;3.95;nan;102514.69;5040912;28;20088;-84
2022/01/18 03:05:55;;;;;;;;;;;;;;;3.96;nan;102507.72;5039191;28;19928;-85
2022/01/18 03:08:21;;;;;;;;;;;;;;;3.95;nan;102516.44;5034940;28;19929;-84
2022/01/18 03:10:46;;;;;;;;;;;;;;;3.92;nan;102506.13;5039507;28;20027;-84
2022/01/18 03:13:11;;;;;;;;;;;;;;;3.87;nan;102508.91;5038089;28;19917;-84
2022/01/18 03:15:36;;;;;;;;;;;;;;;3.83;nan;102507.31;5055095;28;19955;-84
2022/01/18 03:18:03;;;;;;;;;;;;;;;3.77;nan;102507.56;5040464;28;19925;-84
2022/01/18 03:20:29;;;;;;;;;;;;;;;3.77;nan;102510.19;5036549;28;19927;-84
2022/01/18 03:22:55;;;;;;;;;;;;;;;3.71;nan;102513.88;5033106;28;19932;-84
2022/01/18 03:25:40;;;;;;;;;;;;;;;3.73;nan;102516.44;5044921;28;20363;-84
2022/01/18 03:28:07;;;;;;;;;;;;;;;3.76;nan;102524.16;5032247;28;19928;-84
2022/01/18 03:30:37;;;;;;;;;;;;;;;3.81;nan;102523.09;5043912;28;19928;-84
2022/01/18 03:33:03;;;;;;;;;;;;;;;3.83;nan;102525.63;5038886;28;19981;-84
2022/01/18 03:35:28;;;;;;;;;;;;;;;3.83;nan;102518.63;5040046;28;19928;-84
2022/01/18 03:37:53;;;;;;;;;;;;;;;3.89;nan;102522.78;5034280;28;20415;-84
2022/01/18 03:40:19;;;;;;;;;;;;;;;3.92;nan;102520.03;5040180;28;19948;-84
2022/01/18 03:42:46;;;;;;;;;;;;;;;3.92;nan;102524.44;5040960;28;20437;-85
2022/01/18 03:45:13;;;;;;;;;;;;;;;3.94;nan;102520.84;5044413;28;20413;-86
2022/01/18 03:47:38;;;;;;;;;;;;;;;3.92;nan;102525.28;5035271;28;19924;-84
2022/01/18 03:50:05;;;;;;;;;;;;;;;3.94;nan;102528.69;5044722;28;19924;-84
2022/01/18 03:52:30;;;;;;;;;;;;;;;3.94;nan;102526.06;5027138;28;19953;-85
2022/01/18 03:54:56;;;;;;;;;;;;;;;3.93;nan;102537.47;5037891;28;20009;-84
2022/01/18 03:57:22;;;;;;;;;;;;;;;3.91;nan;102534.06;5027678;28;19988;-84
2022/01/18 03:59:47;;;;;;;;;;;;;;;3.91;nan;102534.06;5004129;28;19922;-85
2022/01/18 04:02:12;;;;;;;;;;;;;;;3.95;nan;102545.25;5019405;28;20291;-85
2022/01/18 04:04:38;;;;;;;;;;;;;;;3.93;nan;102536.59;5003092;28;19971;-85
2022/01/18 04:07:04;;;;;;;;;;;;;;;3.93;nan;102534.84;5002490;28;19929;-85
2022/01/18 04:09:29;;;;;;;;;;;;;;;3.90;nan;102542.81;4998499;28;19928;-84
2022/01/18 04:11:54;;;;;;;;;;;;;;;3.89;nan;102545.50;5020093;28;19981;-85
2022/01/18 04:14:20;;;;;;;;;;;;;;;3.92;nan;102545.38;5018123;28;19922;-85
2022/01/18 04:17:02;;;;;;;;;;;;;;;3.86;nan;102550.81;5019149;28;20011;-85
2022/01/18 04:27:29;;;;;;;;;;;;;;;3.88;nan;102555.09;5019767;28;19928;-84
2022/01/18 04:29:54;;;;;;;;;;;;;;;3.83;nan;102552.66;5001756;28;20142;-84
2022/01/18 04:32:20;;;;;;;;;;;;;;;3.83;nan;102542.19;5017199;28;19921;-85
2022/01/18 04:34:45;;;;;;;;;;;;;;;3.84;nan;102545.69;4999891;28;19922;-85
2022/01/18 04:37:10;;;;;;;;;;;;;;;3.76;nan;102548.56;5017804;28;19921;-85
2022/01/18 04:39:40;;;;;;;;;;;;;;;3.77;nan;102552.06;5016024;28;19928;-85
2022/01/18 04:42:16;;;;;;;;;;;;;;;3.77;nan;102552.06;4991219;28;19929;-86
2022/01/18 04:50:09;;;;;;;;;;;;;;;3.70;nan;102561.03;5034365;28;19974;-84
2022/01/18 04:52:34;;;;;;;;;;;;;;;3.74;nan;102567.84;5034922;28;20371;-84
2022/01/18 04:55:01;;;;;;;;;;;;;;;3.78;nan;102558.97;5019005;28;19922;-84
2022/01/18 05:00:11;;;;;;;;;;;;;;;3.79;nan;102558.94;5009601;28;19945;-84
2022/01/18 05:02:37;;;;;;;;;;;;;;;3.76;nan;102566.03;5024756;28;19921;-84
2022/01/18 05:05:03;;;;;;;;;;;;;;;3.71;nan;102573.19;5002551;28;20298;-84
2022/01/18 05:07:32;;;;;;;;;;;;;;;3.76;nan;102571.25;5007362;28;19922;-84
2022/01/18 05:09:57;;;;;;;;;;;;;;;3.76;nan;102581.72;5014042;28;19953;-84
2022/01/18 05:12:46;;;;;;;;;;;;;;;3.79;nan;102571.13;5009969;28;19922;-84
2022/01/18 05:15:35;;;;;;;;;;;;;;;3.82;nan;102577.13;5024860;28;19932;-84
2022/01/18 05:23:15;;;;;;;;;;;;;;;3.80;nan;102575.47;5036414;28;19936;-85
2022/01/18 05:25:40;;;;;;;;;;;;;;;3.77;nan;102580.84;5010007;28;19922;-84
2022/01/18 05:28:06;;;;;;;;;;;;;;;3.73;nan;102582.69;5007349;28;19922;-85
2022/01/18 05:30:32;;;;;;;;;;;;;;;3.75;nan;102582.66;5028958;28;19928;-85
2022/01/18 05:32:58;;;;;;;;;;;;;;;3.77;nan;102580.84;5013953;28;19960;-85
2022/01/18 05:35:23;;;;;;;;;;;;;;;3.77;nan;102588.69;5019395;28;19932;-84
2022/01/18 05:37:49;;;;;;;;;;;;;;;3.73;nan;102587.09;5020640;28;20326;-83
2022/01/18 05:40:15;;;;;;;;;;;;;;;3.72;nan;102595.81;5027257;28;20172;-85
2022/01/18 05:42:41;;;;;;;;;;;;;;;3.73;nan;102595.78;5025938;28;20429;-85
2022/01/18 05:45:06;;;;;;;;;;;;;;;3.73;nan;102593.16;5036334;28;19928;-84
2022/01/18 05:47:32;;;;;;;;;;;;;;;3.71;nan;102596.75;5016800;28;20360;-84
2022/01/18 05:49:57;;;;;;;;;;;;;;;3.67;nan;102592.53;5029381;28;19922;-83
2022/01/18 05:52:22;;;;;;;;;;;;;;;3.60;nan;102594.53;5014674;28;19922;-85
2022/01/18 05:54:47;;;;;;;;;;;;;;;3.56;nan;102591.16;5016696;28;19921;-84
2022/01/18 05:57:13;;;;;;;;;;;;;;;3.61;nan;102601.47;5016362;28;19929;-85
2022/01/18 05:59:44;;;;;;;;;;;;;;;3.68;nan;102602.09;5036391;28;20294;-84
2022/01/18 06:02:31;;;;;;;;;;;;;;;3.69;nan;102603.78;5021438;28;20020;-85
2022/01/18 06:07:40;;;;;;;;;;;;;;;3.72;nan;102603.69;5028818;28;19927;-84
2022/01/18 06:10:05;;;;;;;;;;;;;;;3.72;nan;102599.31;5018766;28;19922;-86
2022/01/18 06:12:32;;;;;;;;;;;;;;;3.75;nan;102603.59;5015934;28;20329;-85
2022/01/18 06:14:57;;;;;;;;;;;;;;;3.76;nan;102603.50;5015648;28;19922;-85
2022/01/18 06:17:22;;;;;;;;;;;;;;;3.75;nan;102604.44;5001548;28;20367;-85
2022/01/18 06:19:47;;;;;;;;;;;;;;;3.68;nan;102604.72;5006368;28;19976;-85
2022/01/18 06:22:12;;;;;;;;;;;;;;;3.57;nan;102600.72;5029712;28;19917;-83
2022/01/18 06:24:38;;;;;;;;;;;;;;;3.52;nan;102602.63;5032470;28;19921;-84
2022/01/18 06:27:03;;;;;;;;;;;;;;;3.56;nan;102599.00;5035014;28;19922;-85
2022/01/18 06:29:28;;;;;;;;;;;;;;;3.59;nan;102596.28;5032195;28;19986;-83
2022/01/18 06:31:53;;;;;;;;;;;;;;;3.64;nan;102608.34;5036433;28;19949;-83
2022/01/18 06:34:19;;;;;;;;;;;;;;;3.61;nan;102604.94;5035650;28;19953;-84
2022/01/18 06:36:44;;;;;;;;;;;;;;;3.59;nan;102611.97;5034082;28;19929;-84
2022/01/18 06:39:10;;;;;;;;;;;;;;;3.62;nan;102616.25;5027344;28;19952;-84
2022/01/18 06:41:35;;;;;;;;;;;;;;;3.67;nan;102623.94;5032042;28;19925;-85
2022/01/18 06:44:00;;;;;;;;;;;;;;;3.70;nan;102627.31;5033790;28;20008;-85
2022/01/18 06:46:25;;;;;;;;;;;;;;;3.66;nan;102637.94;5034306;28;19921;-85
2022/01/18 06:48:51;;;;;;;;;;;;;;;3.67;nan;102634.38;5035584;28;19975;-85
2022/01/18 06:51:16;;;;;;;;;;;;;;;3.72;nan;102632.47;5033465;28;19921;-84
2022/01/18 06:53:48;;;;;;;;;;;;;;;3.76;nan;102631.44;5032414;28;19917;-84
2022/01/18 06:56:17;;;;;;;;;;;;;;;3.79;nan;102644.41;5032817;28;19980;-84
2022/01/18 06:58:42;;;;;;;;;;;;;;;3.78;nan;102642.72;5035399;28;20176;-84
2022/01/18 07:01:08;;;;;;;;;;;;;;;3.77;nan;102644.47;5033884;28;19921;-83
2022/01/18 07:03:34;;;;;;;;;;;;;;;3.81;nan;102646.09;5031651;28;19917;-84
2022/01/18 07:05:59;;;;;;;;;;;;;;;3.82;nan;102654.78;5031145;28;19922;-84
2022/01/18 07:08:24;;;;;;;;;;;;;;;3.81;nan;102661.78;5034923;28;20437;-84
2022/01/18 07:10:49;;;;;;;;;;;;;;;3.79;nan;102665.34;5042550;28;19922;-85
2022/01/18 07:13:15;;;;;;;;;;;;;;;3.81;nan;102659.16;5037604;28;19929;-84
2022/01/18 07:15:40;;;;;;;;;;;;;;;3.82;nan;102665.25;5033547;28;19932;-85
2022/01/18 07:18:06;;;;;;;;;;;;;;;3.77;nan;102667.19;5036624;28;20022;-85
2022/01/18 07:20:32;;;;;;;;;;;;;;;3.71;nan;102670.00;5028667;28;20377;-84
2022/01/18 07:22:57;;;;;;;;;;;;;;;3.76;nan;102670.69;5024301;28;19964;-85
2022/01/18 07:25:25;;;;;;;;;;;;;;;3.78;nan;102667.09;5027706;28;19925;-85
2022/01/18 07:27:50;;;;;;;;;;;;;;;3.80;nan;102672.31;5032835;28;19967;-84
2022/01/18 07:30:15;;;;;;;;;;;;;;;3.83;nan;102672.19;5035845;28;19925;-85
2022/01/18 07:32:41;;;;;;;;;;;;;;;3.87;nan;102676.41;5022388;28;19921;-84
2022/01/18 07:35:08;;;;;;;;;;;;;;;3.86;nan;102677.28;5034950;28;20752;-85
2022/01/18 07:37:33;;;;;;;;;;;;;;;3.89;nan;102678.97;5032600;28;19928;-84
2022/01/18 07:39:58;;;;;;;;;;;;;;;3.95;nan;102673.50;5035188;28;20350;-86
2022/01/18 07:42:23;;;;;;;;;;;;;;;3.95;nan;102669.13;5039305;28;20429;-85
2022/01/18 07:44:49;;;;;;;;;;;;;;;3.96;nan;102673.47;5034626;28;20017;-85
2022/01/18 07:47:14;;;;;;;;;;;;;;;3.96;nan;102676.06;5038016;28;19929;-84
2022/01/18 07:49:39;;;;;;;;;;;;;;;4.01;nan;102675.91;5039672;28;19921;-85
2022/01/18 07:52:05;;;;;;;;;;;;;;;4.05;nan;102677.47;5047631;28;19921;-85
2022/01/18 07:54:30;;;;;;;;;;;;;;;4.12;nan;102675.50;5045154;28;19978;-85
2022/01/18 07:56:55;;;;;;;;;;;;;;;4.15;nan;102672.78;5041503;28;19936;-85
2022/01/18 07:59:20;;;;;;;;;;;;;;;4.22;nan;102676.88;5039729;28;19940;-85
2022/01/18 08:01:46;;;;;;;;;;;;;;;4.22;nan;102685.59;5040478;28;19921;-84
2022/01/18 08:04:11;;;;;;;;;;;;;;;4.24;nan;102675.03;5031241;28;19921;-85
2022/01/18 08:06:36;;;;;;;;;;;;;;;4.26;nan;102671.44;5038759;28;20019;-85
2022/01/18 08:09:02;;;;;;;;;;;;;;;4.30;nan;102669.56;5032024;28;20370;-86
2022/01/18 08:11:27;;;;;;;;;;;;;;;4.30;nan;102677.44;5023779;28;20010;-85
2022/01/18 08:13:52;;;;;;;;;;;;;;;4.34;nan;102673.78;5020855;28;20314;-85
2022/01/18 08:18:46;;;;;;;;;;;;;;;4.43;nan;102670.81;5039270;28;19928;-85
2022/01/18 08:21:11;;;;;;;;;;;;;;;4.45;nan;102673.38;5034604;28;19922;-85
2022/01/18 08:23:36;;;;;;;;;;;;;;;4.46;nan;102670.69;5033578;28;19921;-85
2022/01/18 08:26:02;;;;;;;;;;;;;;;4.49;nan;102674.13;5033393;28;19918;-85
2022/01/18 08:28:27;;;;;;;;;;;;;;;4.55;nan;102677.31;5005109;28;20012;-85
2022/01/18 08:30:52;;;;;;;;;;;;;;;4.54;nan;102680.03;5030620;28;20069;-84
2022/01/18 08:33:19;;;;;;;;;;;;;;;4.59;nan;102675.44;5026731;28;19932;-85
2022/01/18 08:35:44;;;;;;;;;;;;;;;4.61;nan;102676.25;5033197;28;19925;-85
2022/01/18 08:38:09;;;;;;;;;;;;;;;4.70;nan;102677.66;5026265;28;20127;-85
2022/01/18 08:40:34;;;;;;;;;;;;;;;4.72;nan;102676.69;5023799;28;19925;-84
2022/01/18 08:42:59;;;;;;;;;;;;;;;4.65;nan;102675.22;5036158;28;19957;-86
2022/01/18 08:45:25;;;;;;;;;;;;;;;4.76;nan;102678.25;5024867;28;20063;-85
2022/01/18 08:47:50;;;;;;;;;;;;;;;4.84;nan;102677.97;5031602;28;19921;-85
2022/01/18 08:50:17;;;;;;;;;;;;;;;4.87;nan;102669.97;5029335;28;20303;-85
2022/01/18 08:52:42;;;;;;;;;;;;;;;4.92;nan;102680.28;5029978;28;19921;-85
2022/01/18 08:55:08;;;;;;;;;;;;;;;4.99;nan;102686.97;5033806;28;19973;-85
2022/01/18 08:57:33;;;;;;;;;;;;;;;5.05;nan;102687.59;5036606;28;19932;-84
2022/01/18 08:59:58;;;;;;;;;;;;;;;5.14;nan;102699.44;5031295;28;20414;-86
2022/01/18 09:02:24;;;;;;;;;;;;;;;5.19;nan;102689.63;5031710;28;20381;-85
2022/01/18 09:04:50;;;;;;;;;;;;;;;5.22;nan;102686.88;5032666;28;19924;-84
2022/01/18 09:07:17;;;;;;;;;;;;;;;5.25;nan;102686.75;5032393;28;19977;-85
2022/01/18 09:09:44;;;;;;;;;;;;;;;5.26;nan;102684.97;5021162;28;19922;-85
2022/01/18 09:12:11;;;;;;;;;;;;;;;5.24;nan;102694.66;5027110;28;20400;-86
2022/01/18 09:14:37;;;;;;;;;;;;;;;5.26;nan;102691.06;5018911;28;19917;-85
2022/01/18 09:17:02;;;;;;;;;;;;;;;5.35;nan;102692.47;5032868;28;19925;-86
2022/01/18 09:19:28;;;;;;;;;;;;;;;5.43;nan;102700.84;5033501;28;19928;-85
2022/01/18 09:21:53;;;;;;;;;;;;;;;5.58;nan;102702.00;5031859;28;19921;-86
2022/01/18 09:24:18;;;;;;;;;;;;;;;5.56;nan;102702.97;5032144;28;20016;-86
2022/01/18 09:26:43;;;;;;;;;;;;;;;5.62;nan;102702.69;5031367;28;20387;-86
2022/01/18 09:29:10;;;;;;;;;;;;;;;5.79;nan;102708.06;5029837;28;19921;-85
2022/01/18 09:31:37;;;;;;;;;;;;;;;5.81;nan;102714.09;5022457;28;19921;-85
2022/01/18 09:34:02;;;;;;;;;;;;;;;5.83;nan;102707.00;5031136;28;20602;-85
2022/01/18 09:36:27;;;;;;;;;;;;;;;5.94;nan;102711.84;5031268;28;20147;-83
2022/01/18 09:38:53;;;;;;;;;;;;;;;6.00;nan;102708.94;5038541;28;19957;-83
2022/01/18 09:41:20;;;;;;;;;;;;;;;5.94;nan;102714.47;5042187;28;20004;-83
2022/01/18 09:43:45;;;;;;;;;;;;;;;5.98;nan;102710.75;5032931;28;19937;-83
2022/01/18 09:46:11;;;;;;;;;;;;;;;6.03;nan;102711.44;5030907;28;20429;-86
2022/01/18 09:48:37;;;;;;;;;;;;;;;6.22;nan;102710.59;5029915;28;19943;-86
2022/01/18 09:51:03;;;;;;;;;;;;;;;6.36;nan;102718.69;5031454;28;20028;-85
2022/01/18 09:53:28;;;;;;;;;;;;;;;6.36;nan;102719.56;5026899;28;19917;-85
2022/01/18 09:55:53;;;;;;;;;;;;;;;6.43;nan;102712.22;5025578;28;20488;-85
2022/01/18 09:58:19;;;;;;;;;;;;;;;6.55;nan;102716.94;5028406;28;19917;-85
2022/01/18 10:00:46;;;;;;;;;;;;;;;6.62;nan;102708.75;5029046;28;19953;-86
2022/01/18 10:03:41;;;;;;;;;;;;;;;6.70;nan;102711.88;5031009;28;19970;-83
2022/01/18 10:06:07;;;;;;;;;;;;;;;6.80;nan;102711.34;5026240;28;19929;-85
2022/01/18 10:08:33;;;;;;;;;;;;;;;6.77;nan;102710.66;5035491;28;19918;-85
2022/01/18 10:10:59;;;;;;;;;;;;;;;6.73;nan;102707.31;5027835;28;19921;-85
2022/01/18 10:13:26;;;;;;;;;;;;;;;6.74;nan;102705.53;5036482;28;20303;-85
2022/01/18 10:16:05;;;;;;;;;;;;;;;6.89;nan;102707.44;5034731;28;19932;-85
2022/01/18 10:18:45;;;;;;;;;;;;;;;7.05;nan;102707.53;5031428;28;19918;-85
2022/01/18 10:21:11;;;;;;;;;;;;;;;7.15;nan;102700.91;5030939;28;19979;-86
2022/01/18 10:23:37;;;;;;;;;;;;;;;7.24;nan;102696.94;5033917;28;20035;-85
2022/01/18 10:26:24;;;;;;;;;;;;;;;7.25;nan;102697.81;5025290;28;19925;-85
2022/01/18 10:29:04;;;;;;;;;;;;;;;7.35;nan;102696.41;5032174;28;19922;-84
2022/01/18 10:31:45;;;;;;;;;;;;;;;7.36;nan;102687.59;5014141;28;19921;-85
2022/01/18 10:34:14;;;;;;;;;;;;;;;7.36;nan;102690.22;5014725;28;20350;-85
2022/01/18 10:37:01;;;;;;;;;;;;;;;7.32;nan;102692.16;5010234;28;20409;-86
2022/01/18 10:39:28;;;;;;;;;;;;;;;7.43;nan;102687.19;5033560;28;20000;-85
2022/01/18 10:41:53;;;;;;;;;;;;;;;7.50;nan;102690.38;5027919;28;19921;-86
2022/01/18 10:44:19;;;;;;;;;;;;;;;7.50;nan;102679.84;5028065;28;19933;-86
2022/01/18 10:46:47;;;;;;;;;;;;;;;7.45;nan;102685.34;5030338;28;19927;-87
2022/01/18 10:49:24;;;;;;;;;;;;;;;7.44;nan;102677.53;5034584;28;19927;-85
2022/01/18 10:51:55;;;;;;;;;;;;;;;7.23;nan;102676.84;5009787;28;19964;-85
2022/01/18 10:54:20;;;;;;;;;;;;;;;7.17;nan;102672.72;5016825;28;19921;-85
2022/01/18 10:56:47;;;;;;;;;;;;;;;7.33;nan;102670.16;5016199;28;19925;-85
2022/01/18 10:59:22;;;;;;;;;;;;;;;7.26;nan;102671.41;5028606;28;19967;-86
2022/01/18 11:02:03;;;;;;;;;;;;;;;7.23;nan;102675.03;5005969;28;20394;-85
2022/01/18 11:04:28;;;;;;;;;;;;;;;7.21;nan;102679.53;5022514;28;20115;-85
2022/01/18 11:06:58;;;;;;;;;;;;;;;7.23;nan;102669.78;5020943;28;20615;-86
2022/01/18 11:09:25;;;;;;;;;;;;;;;7.16;nan;102675.44;5038782;28;19921;-85
2022/01/18 11:11:50;;;;;;;;;;;;;;;7.18;nan;102669.16;5039966;28;19921;-86
2022/01/18 11:14:18;;;;;;;;;;;;;;;7.10;nan;102667.84;5037494;28;19975;-86
2022/01/18 11:16:44;;;;;;;;;;;;;;;7.07;nan;102671.47;5037151;28;19967;-85
2022/01/18 11:19:34;;;;;;;;;;;;;;;7.06;nan;102666.31;5034694;28;19924;-85
2022/01/18 11:22:02;;;;;;;;;;;;;;;6.88;nan;102668.06;5030432;28;19928;-86
2022/01/18 11:24:28;;;;;;;;;;;;;;;7.02;nan;102669.06;5033121;28;19927;-85
2022/01/18 11:26:54;;;;;;;;;;;;;;;6.97;nan;102659.72;5043891;28;20033;-85
2022/01/18 11:29:19;;;;;;;;;;;;;;;7.00;nan;102664.81;5044969;28;20174;-85
2022/01/18 11:31:49;;;;;;;;;;;;;;;7.08;nan;102661.81;5037274;28;19925;-85
2022/01/18 11:34:33;;;;;;;;;;;;;;;7.07;nan;102662.75;5038854;28;19921;-86
2022/01/18 11:37:17;;;;;;;;;;;;;;;7.09;nan;102658.25;5034890;28;19926;-85
2022/01/18 11:39:42;;;;;;;;;;;;;;;7.14;nan;102656.25;5052832;28;19921;-85
2022/01/18 11:42:12;;;;;;;;;;;;;;;7.13;nan;102649.28;5027320;28;20390;-86
2022/01/18 11:44:39;;;;;;;;;;;;;;;7.10;nan;102634.47;5037829;28;19932;-85
2022/01/18 11:47:05;;;;;;;;;;;;;;;7.26;nan;102633.72;5031327;28;19988;-86
2022/01/18 11:49:33;;;;;;;;;;;;;;;7.31;nan;102644.84;5032230;28;19921;-86
2022/01/18 11:52:02;;;;;;;;;;;;;;;7.43;nan;102638.97;5034372;28;19932;-86
2022/01/18 11:54:43;;;;;;;;;;;;;;;7.36;nan;102638.41;5033239;28;19920;-85
2022/01/18 11:57:21;;;;;;;;;;;;;;;7.13;nan;102649.28;5032251;28;19925;-84
2022/01/18 11:59:46;;;;;;;;;;;;;;;7.29;nan;102637.03;5030829;28;20398;-85
2022/01/18 12:02:24;;;;;;;;;;;;;;;7.30;nan;102625.59;5031268;28;19932;-85
2022/01/18 12:04:54;;;;;;;;;;;;;;;7.34;nan;102631.53;5036867;28;19921;-85
2022/01/18 12:07:36;;;;;;;;;;;;;;;7.31;nan;102629.91;5031400;28;20333;-86
2022/01/18 12:10:03;;;;;;;;;;;;;;;7.34;nan;102623.63;5055305;28;19921;-85
2022/01/18 12:12:41;;;;;;;;;;;;;;;7.21;nan;102623.44;5029672;28;19922;-85
2022/01/18 12:15:15;;;;;;;;;;;;;;;7.31;nan;102615.91;5016456;28;20291;-87
2022/01/18 12:17:48;;;;;;;;;;;;;;;7.19;nan;102623.50;5025870;28;20364;-85
2022/01/18 12:20:32;;;;;;;;;;;;;;;7.34;nan;102624.50;5033781;28;19921;-86
2022/01/18 12:23:07;;;;;;;;;;;;;;;7.42;nan;102611.78;5035966;28;20395;-86
2022/01/18 12:25:35;;;;;;;;;;;;;;;7.43;nan;102616.13;5030111;28;19917;-85
2022/01/18 12:28:31;;;;;;;;;;;;;;;7.42;nan;102617.06;5028807;28;19921;-86
2022/01/18 12:31:06;;;;;;;;;;;;;;;7.29;nan;102623.88;4997403;28;19917;-85
2022/01/18 12:33:42;;;;;;;;;;;;;;;7.27;nan;102614.38;5036374;28;19917;-85
2022/01/18 12:36:27;;;;;;;;;;;;;;;7.29;nan;102609.88;5027854;28;20398;-86
2022/01/18 12:39:00;;;;;;;;;;;;;;;7.30;nan;102606.34;5024330;28;19932;-86
2022/01/18 12:41:41;;;;;;;;;;;;;;;7.27;nan;102601.19;5030600;28;20340;-86
2022/01/18 12:44:21;;;;;;;;;;;;;;;7.30;nan;102601.91;5033286;28;19921;-86
2022/01/18 12:46:57;;;;;;;;;;;;;;;7.35;nan;102597.25;5033027;28;19944;-86
2022/01/18 12:49:22;;;;;;;;;;;;;;;7.30;nan;102586.13;5039067;28;19921;-86
2022/01/18 12:51:54;;;;;;;;;;;;;;;7.18;nan;102578.88;5047287;28;19972;-86
2022/01/18 12:54:20;;;;;;;;;;;;;;;7.11;nan;102574.84;5041479;28;19921;-86
2022/01/18 12:56:45;;;;;;;;;;;;;;;7.10;nan;102573.97;5047921;28;19925;-86
2022/01/18 12:59:10;;;;;;;;;;;;;;;7.14;nan;102582.56;5041272;28;20437;-86
2022/01/18 13:01:37;;;;;;;;;;;;;;;6.90;nan;102582.88;5037557;28;19921;-86
2022/01/18 13:04:06;;;;;;;;;;;;;;;7.04;nan;102576.09;5034364;28;19925;-86
2022/01/18 13:06:33;;;;;;;;;;;;;;;7.09;nan;102574.91;5022986;28;19926;-86
2022/01/18 13:09:00;;;;;;;;;;;;;;;7.08;nan;102572.34;5021693;28;19921;-86
2022/01/18 13:11:26;;;;;;;;;;;;;;;7.13;nan;102573.00;5025346;28;19926;-86
2022/01/18 13:13:59;;;;;;;;;;;;;;;7.02;nan;102570.91;5034454;28;19924;-86
2022/01/18 13:27:30;;;;;;;;;;;;;;;6.95;nan;102559.84;5030558;28;19925;-85
2022/01/18 13:30:18;;;;;;;;;;;;;;;6.94;nan;102554.69;5035695;28;20012;-85
2022/01/18 13:32:45;;;;;;;;;;;;;;;6.98;nan;102551.81;5033283;28;19925;-85
2022/01/18 13:35:11;;;;;;;;;;;;;;;7.11;nan;102545.91;5045154;28;19917;-86
2022/01/18 13:37:38;;;;;;;;;;;;;;;7.02;nan;102550.69;5039620;28;19924;-85
2022/01/18 13:40:05;;;;;;;;;;;;;;;7.11;nan;102552.03;5028939;28;19933;-86
2022/01/18 13:42:34;;;;;;;;;;;;;;;7.20;nan;102545.44;5033204;28;19921;-86
2022/01/18 13:45:19;;;;;;;;;;;;;;;7.06;nan;102554.03;5037719;28;19925;-85
2022/01/18 13:47:44;;;;;;;;;;;;;;;7.13;nan;102550.16;5034597;28;19928;-86
2022/01/18 13:50:28;;;;;;;;;;;;;;;7.09;nan;102556.50;5039376;28;19921;-86
2022/01/18 13:53:00;;;;;;;;;;;;;;;7.19;nan;102559.50;5021890;28;19956;-86
2022/01/18 13:55:26;;;;;;;;;;;;;;;7.11;nan;102553.81;5025358;28;19949;-85
2022/01/18 13:57:55;;;;;;;;;;;;;;;7.04;nan;102553.25;5030137;28;19917;-86
2022/01/18 14:00:22;;;;;;;;;;;;;;;7.00;nan;102556.97;5032074;28;19921;-86
2022/01/18 14:02:47;;;;;;;;;;;;;;;7.03;nan;102559.44;5038107;28;20309;-85
2022/01/18 14:05:14;;;;;;;;;;;;;;;7.06;nan;102555.81;5028137;28;19984;-85
2022/01/18 14:07:39;;;;;;;;;;;;;;;7.05;nan;102556.75;5035460;28;20314;-86
2022/01/18 14:10:05;;;;;;;;;;;;;;;7.01;nan;102566.59;5037511;28;19921;-85
2022/01/18 14:12:31;;;;;;;;;;;;;;;7.01;nan;102570.06;5040514;28;19923;-84
2022/01/18 14:14:56;;;;;;;;;;;;;;;6.98;nan;102567.59;5031090;28;19917;-84
2022/01/18 14:17:25;;;;;;;;;;;;;;;6.96;nan;102569.44;5034196;28;19928;-85
2022/01/18 14:20:00;;;;;;;;;;;;;;;6.92;nan;102567.88;5031700;28;19964;-85
2022/01/18 14:22:27;;;;;;;;;;;;;;;6.84;nan;102570.06;5037273;28;19933;-84
2022/01/18 14:24:58;;;;;;;;;;;;;;;6.84;nan;102563.94;5035924;28;19948;-84
2022/01/18 14:27:25;;;;;;;;;;;;;;;6.84;nan;102572.69;5037427;28;19964;-84
2022/01/18 14:29:53;;;;;;;;;;;;;;;6.93;nan;102564.31;5029546;28;20371;-84
2022/01/18 14:32:26;;;;;;;;;;;;;;;6.77;nan;102563.41;5030542;28;19921;-85
2022/01/18 14:34:53;;;;;;;;;;;;;;;6.69;nan;102569.03;5035117;28;19925;-85
2022/01/18 14:37:18;;;;;;;;;;;;;;;6.64;nan;102562.31;5037642;28;19929;-85